sensor_id;sensor_type;location;lat;lon;timestamp;pressure;altitude;pressure_sealevel;temperature;humidity
54600;BME280;40500;51.084;16.958;2023-05-08T00:01:25;101454.27;;;4.99;100.00
54600;BME280;40500;51.084;16.958;2023-05-08T00:03:56;101456.12;;;4.97;100.00
54600;BME280;40500;51.084;16.958;2023-05-08T00:06:26;101454.20;;;4.96;100.00
54600;BME280;40500;51.084;16.958;2023-05-08T00:08:57;101456.06;;;4.94;100.00
54600;BME280;40500;51.084;16.958;2023-05-08T00:11:27;101457.06;;;4.92;100.00
54600;BME280;40500;51.084;16.958;2023-05-08T00:13:58;101458.23;;;4.91;100.00
54600;BME280;40500;51.084;16.958;2023-05-08T00:16:28;101458.89;;;4.89;100.00
54600;BME280;40500;51.084;16.958;2023-05-08T00:18:58;101459.20;;;4.87;100.00
54600;BME280;40500;51.084;16.958;2023-05-08T00:21:28;101452.89;;;4.85;100.00
54600;BME280;40500;51.084;16.958;2023-05-08T00:24:00;101456.33;;;4.84;100.00
54600;BME280;40500;51.084;16.958;2023-05-08T00:26:30;101454.21;;;4.83;100.00
54600;BME280;40500;51.084;16.958;2023-05-08T00:29:00;101454.17;;;4.81;100.00
54600;BME280;40500;51.084;16.958;2023-05-08T00:31:33;101454.14;;;4.80;100.00
54600;BME280;40500;51.084;16.958;2023-05-08T00:34:04;101451.83;;;4.77;100.00
54600;BME280;40500;51.084;16.958;2023-05-08T00:36:35;101452.48;;;4.75;100.00
54600;BME280;40500;51.084;16.958;2023-05-08T00:39:05;101454.52;;;4.73;100.00
54600;BME280;40500;51.084;16.958;2023-05-08T00:41:35;101455.16;;;4.72;100.00
54600;BME280;40500;51.084;16.958;2023-05-08T00:44:06;101452.84;;;4.69;100.00
54600;BME280;40500;51.084;16.958;2023-05-08T00:46:37;101448.98;;;4.67;100.00
54600;BME280;40500;51.084;16.958;2023-05-08T00:49:08;101448.29;;;4.67;100.00
54600;BME280;40500;51.084;16.958;2023-05-08T00:51:44;101448.93;;;4.65;100.00
54600;BME280;40500;51.084;16.958;2023-05-08T00:54:16;101451.48;;;4.63;100.00
54600;BME280;40500;51.084;16.958;2023-05-08T00:56:47;101450.02;;;4.60;100.00
54600;BME280;40500;51.084;16.958;2023-05-08T00:59:20;101453.98;;;4.59;100.00
54600;BME280;40500;51.084;16.958;2023-05-08T01:01:52;101453.27;;;4.58;100.00
54600;BME280;40500;51.084;16.958;2023-05-08T01:04:25;101454.27;;;4.57;100.00
54600;BME280;40500;51.084;16.958;2023-05-08T01:06:55;101457.52;;;4.54;100.00
54600;BME280;40500;51.084;16.958;2023-05-08T01:09:26;101459.17;;;4.52;100.00
54600;BME280;40500;51.084;16.958;2023-05-08T01:12:09;101455.60;;;4.48;100.00
54600;BME280;40500;51.084;16.958;2023-05-08T01:14:55;101458.33;;;4.46;100.00
54600;BME280;40500;51.084;16.958;2023-05-08T01:17:33;101461.39;;;4.44;100.00
54600;BME280;40500;51.084;16.958;2023-05-08T01:20:17;101464.32;;;4.43;100.00
54600;BME280;40500;51.084;16.958;2023-05-08T01:26:06;101466.06;;;4.37;100.00
54600;BME280;40500;51.084;16.958;2023-05-08T01:28:57;101469.66;;;4.35;100.00
54600;BME280;40500;51.084;16.958;2023-05-08T01:31:46;101462.51;;;4.32;100.00
54600;BME280;40500;51.084;16.958;2023-05-08T01:34:22;101465.02;;;4.29;100.00
54600;BME280;40500;51.084;16.958;2023-05-08T01:36:59;101464.46;;;4.28;100.00
54600;BME280;40500;51.084;16.958;2023-05-08T01:39:37;101465.97;;;4.27;100.00
54600;BME280;40500;51.084;16.958;2023-05-08T01:42:16;101467.11;;;4.24;100.00
54600;BME280;40500;51.084;16.958;2023-05-08T01:44:50;101471.58;;;4.23;100.00
54600;BME280;40500;51.084;16.958;2023-05-08T01:47:25;101475.70;;;4.21;100.00
54600;BME280;40500;51.084;16.958;2023-05-08T01:50:02;101475.65;;;4.19;100.00
54600;BME280;40500;51.084;16.958;2023-05-08T01:52:42;101470.92;;;4.17;100.00
54600;BME280;40500;51.084;16.958;2023-05-08T01:55:20;101471.88;;;4.14;100.00
54600;BME280;40500;51.084;16.958;2023-05-08T01:57:54;101470.08;;;4.12;100.00
54600;BME280;40500;51.084;16.958;2023-05-08T02:00:27;101470.55;;;4.10;100.00
54600;BME280;40500;51.084;16.958;2023-05-08T02:03:00;101472.73;;;4.07;100.00
54600;BME280;40500;51.084;16.958;2023-05-08T02:05:32;101480.26;;;4.04;100.00
54600;BME280;40500;51.084;16.958;2023-05-08T02:08:05;101478.45;;;4.01;100.00
54600;BME280;40500;51.084;16.958;2023-05-08T02:10:37;101483.73;;;3.99;100.00
54600;BME280;40500;51.084;16.958;2023-05-08T02:13:10;101481.41;;;3.95;100.00
54600;BME280;40500;51.084;16.958;2023-05-08T02:15:43;101487.59;;;3.93;100.00
54600;BME280;40500;51.084;16.958;2023-05-08T02:18:16;101486.65;;;3.91;100.00
54600;BME280;40500;51.084;16.958;2023-05-08T02:20:49;101490.76;;;3.89;100.00
54600;BME280;40500;51.084;16.958;2023-05-08T02:23:23;101492.77;;;3.86;100.00
54600;BME280;40500;51.084;16.958;2023-05-08T02:25:56;101498.76;;;3.84;100.00
54600;BME280;40500;51.084;16.958;2023-05-08T02:28:28;101497.80;;;3.81;100.00
54600;BME280;40500;51.084;16.958;2023-05-08T02:31:00;101495.13;;;3.79;100.00
54600;BME280;40500;51.084;16.958;2023-05-08T02:33:31;101500.25;;;3.76;100.00
54600;BME280;40500;51.084;16.958;2023-05-08T02:36:03;101501.94;;;3.74;100.00
54600;BME280;40500;51.084;16.958;2023-05-08T02:38:37;101505.14;;;3.71;100.00
54600;BME280;40500;51.084;16.958;2023-05-08T02:41:10;101503.84;;;3.69;100.00
54600;BME280;40500;51.084;16.958;2023-05-08T02:43:43;101508.08;;;3.66;100.00
54600;BME280;40500;51.084;16.958;2023-05-08T02:46:17;101513.02;;;3.63;100.00
54600;BME280;40500;51.084;16.958;2023-05-08T02:48:56;101513.80;;;3.60;100.00
54600;BME280;40500;51.084;16.958;2023-05-08T02:51:38;101515.30;;;3.58;100.00
54600;BME280;40500;51.084;16.958;2023-05-08T02:54:23;101515.02;;;3.55;100.00
54600;BME280;40500;51.084;16.958;2023-05-08T02:57:00;101519.42;;;3.51;100.00
54600;BME280;40500;51.084;16.958;2023-05-08T02:59:37;101518.81;;;3.48;100.00
54600;BME280;40500;51.084;16.958;2023-05-08T03:02:14;101520.44;;;3.44;100.00
54600;BME280;40500;51.084;16.958;2023-05-08T03:04:50;101519.83;;;3.42;100.00
54600;BME280;40500;51.084;16.958;2023-05-08T03:07:22;101519.26;;;3.40;100.00
54600;BME280;40500;51.084;16.958;2023-05-08T03:09:58;101520.11;;;3.35;100.00
54600;BME280;40500;51.084;16.958;2023-05-08T03:12:33;101524.28;;;3.35;100.00
54600;BME280;40500;51.084;16.958;2023-05-08T03:15:09;101522.46;;;3.32;100.00
54600;BME280;40500;51.084;16.958;2023-05-08T03:17:42;101521.89;;;3.30;100.00
54600;BME280;40500;51.084;16.958;2023-05-08T03:20:17;101522.88;;;3.29;100.00
54600;BME280;40500;51.084;16.958;2023-05-08T03:22:49;101522.13;;;3.27;100.00
54600;BME280;40500;51.084;16.958;2023-05-08T03:25:23;101524.20;;;3.27;100.00
54600;BME280;40500;51.084;16.958;2023-05-08T03:27:56;101524.86;;;3.26;100.00
54600;BME280;40500;51.084;16.958;2023-05-08T03:30:28;101525.91;;;3.26;100.00
54600;BME280;40500;51.084;16.958;2023-05-08T03:33:04;101525.95;;;3.28;100.00
54600;BME280;40500;51.084;16.958;2023-05-08T03:35:36;101524.45;;;3.29;100.00
54600;BME280;40500;51.084;16.958;2023-05-08T03:38:09;101525.36;;;3.31;100.00
54600;BME280;40500;51.084;16.958;2023-05-08T03:40:41;101523.17;;;3.33;100.00
54600;BME280;40500;51.084;16.958;2023-05-08T03:43:13;101527.58;;;3.35;100.00
54600;BME280;40500;51.084;16.958;2023-05-08T03:45:45;101528.17;;;3.38;100.00
54600;BME280;40500;51.084;16.958;2023-05-08T03:48:17;101528.63;;;3.41;100.00
54600;BME280;40500;51.084;16.958;2023-05-08T03:50:50;101532.71;;;3.44;100.00
54600;BME280;40500;51.084;16.958;2023-05-08T03:53:21;101536.77;;;3.47;100.00
54600;BME280;40500;51.084;16.958;2023-05-08T03:55:51;101534.99;;;3.50;100.00
54600;BME280;40500;51.084;16.958;2023-05-08T03:58:25;101541.53;;;3.55;100.00
54600;BME280;40500;51.084;16.958;2023-05-08T04:01:04;101544.23;;;3.59;100.00
54600;BME280;40500;51.084;16.958;2023-05-08T04:03:52;101545.92;;;3.63;100.00
54600;BME280;40500;51.084;16.958;2023-05-08T04:06:29;101544.21;;;3.69;100.00
54600;BME280;40500;51.084;16.958;2023-05-08T04:09:22;101541.63;;;3.75;100.00
54600;BME280;40500;51.084;16.958;2023-05-08T04:12:01;101543.40;;;3.83;100.00
54600;BME280;40500;51.084;16.958;2023-05-08T04:14:39;101544.63;;;3.88;100.00
54600;BME280;40500;51.084;16.958;2023-05-08T04:17:11;101542.91;;;3.95;100.00
54600;BME280;40500;51.084;16.958;2023-05-08T04:19:46;101538.88;;;3.99;100.00
54600;BME280;40500;51.084;16.958;2023-05-08T04:22:23;101544.15;;;4.07;100.00
54600;BME280;40500;51.084;16.958;2023-05-08T04:24:58;101548.48;;;4.14;100.00
54600;BME280;40500;51.084;16.958;2023-05-08T04:27:31;101554.06;;;4.21;100.00
54600;BME280;40500;51.084;16.958;2023-05-08T04:30:04;101555.41;;;4.26;100.00
54600;BME280;40500;51.084;16.958;2023-05-08T04:32:36;101555.84;;;4.29;100.00
54600;BME280;40500;51.084;16.958;2023-05-08T04:35:10;101565.06;;;4.36;100.00
54600;BME280;40500;51.084;16.958;2023-05-08T04:37:42;101568.25;;;4.45;100.00
54600;BME280;40500;51.084;16.958;2023-05-08T04:40:13;101570.13;;;4.50;100.00
54600;BME280;40500;51.084;16.958;2023-05-08T04:42:45;101576.21;;;4.56;100.00
54600;BME280;40500;51.084;16.958;2023-05-08T04:45:19;101578.01;;;4.65;100.00
54600;BME280;40500;51.084;16.958;2023-05-08T04:47:49;101582.37;;;4.73;100.00
54600;BME280;40500;51.084;16.958;2023-05-08T04:50:20;101583.22;;;4.79;100.00
54600;BME280;40500;51.084;16.958;2023-05-08T04:52:51;101584.05;;;4.84;100.00
54600;BME280;40500;51.084;16.958;2023-05-08T04:55:21;101585.45;;;4.90;100.00
54600;BME280;40500;51.084;16.958;2023-05-08T04:57:52;101589.84;;;4.99;100.00
54600;BME280;40500;51.084;16.958;2023-05-08T05:00:23;101594.11;;;5.17;100.00
54600;BME280;40500;51.084;16.958;2023-05-08T05:02:54;101598.88;;;5.56;100.00
54600;BME280;40500;51.084;16.958;2023-05-08T05:05:25;101597.60;;;5.82;100.00
54600;BME280;40500;51.084;16.958;2023-05-08T05:07:56;101596.89;;;5.90;100.00
54600;BME280;40500;51.084;16.958;2023-05-08T05:10:26;101595.34;;;5.97;100.00
54600;BME280;40500;51.084;16.958;2023-05-08T05:12:57;101597.66;;;6.00;100.00
54600;BME280;40500;51.084;16.958;2023-05-08T05:15:29;101597.34;;;6.08;100.00
54600;BME280;40500;51.084;16.958;2023-05-08T05:17:59;101603.81;;;6.18;100.00
54600;BME280;40500;51.084;16.958;2023-05-08T05:20:31;101603.27;;;6.26;100.00
54600;BME280;40500;51.084;16.958;2023-05-08T05:23:01;101602.52;;;6.32;100.00
54600;BME280;40500;51.084;16.958;2023-05-08T05:25:32;101603.61;;;6.33;100.00
54600;BME280;40500;51.084;16.958;2023-05-08T05:28:04;101600.20;;;6.37;100.00
54600;BME280;40500;51.084;16.958;2023-05-08T05:30:35;101600.98;;;6.42;100.00
54600;BME280;40500;51.084;16.958;2023-05-08T05:33:05;101600.96;;;6.49;100.00
54600;BME280;40500;51.084;16.958;2023-05-08T05:35:36;101600.63;;;6.59;100.00
54600;BME280;40500;51.084;16.958;2023-05-08T05:38:07;101602.02;;;6.67;100.00
54600;BME280;40500;51.084;16.958;2023-05-08T05:40:37;101594.97;;;6.71;100.00
54600;BME280;40500;51.084;16.958;2023-05-08T05:43:08;101601.55;;;6.79;100.00
54600;BME280;40500;51.084;16.958;2023-05-08T05:45:39;101597.84;;;7.05;100.00
54600;BME280;40500;51.084;16.958;2023-05-08T05:48:10;101598.14;;;7.53;100.00
54600;BME280;40500;51.084;16.958;2023-05-08T05:50:42;101596.94;;;7.67;100.00
54600;BME280;40500;51.084;16.958;2023-05-08T05:53:12;101599.05;;;7.57;100.00
54600;BME280;40500;51.084;16.958;2023-05-08T05:55:43;101595.16;;;7.54;100.00
54600;BME280;40500;51.084;16.958;2023-05-08T05:58:13;101597.91;;;7.50;100.00
54600;BME280;40500;51.084;16.958;2023-05-08T06:00:45;101598.73;;;7.48;100.00
54600;BME280;40500;51.084;16.958;2023-05-08T06:03:16;101599.98;;;7.49;100.00
54600;BME280;40500;51.084;16.958;2023-05-08T06:05:48;101602.02;;;7.57;100.00
54600;BME280;40500;51.084;16.958;2023-05-08T06:08:18;101600.59;;;7.66;100.00
54600;BME280;40500;51.084;16.958;2023-05-08T06:10:49;101595.30;;;7.74;100.00
54600;BME280;40500;51.084;16.958;2023-05-08T06:13:19;101600.85;;;7.83;100.00
54600;BME280;40500;51.084;16.958;2023-05-08T06:15:50;101603.42;;;7.93;100.00
54600;BME280;40500;51.084;16.958;2023-05-08T06:18:25;101607.30;;;7.97;100.00
54600;BME280;40500;51.084;16.958;2023-05-08T06:20:59;101607.60;;;8.04;100.00
54600;BME280;40500;51.084;16.958;2023-05-08T06:23:29;101613.62;;;8.37;100.00
54600;BME280;40500;51.084;16.958;2023-05-08T06:26:00;101612.69;;;8.74;100.00
54600;BME280;40500;51.084;16.958;2023-05-08T06:28:30;101601.52;;;9.08;100.00
54600;BME280;40500;51.084;16.958;2023-05-08T06:31:03;101608.54;;;9.31;100.00
54600;BME280;40500;51.084;16.958;2023-05-08T06:33:33;101606.58;;;9.29;100.00
54600;BME280;40500;51.084;16.958;2023-05-08T06:36:06;101610.70;;;9.20;100.00
54600;BME280;40500;51.084;16.958;2023-05-08T06:38:39;101610.61;;;9.10;100.00
54600;BME280;40500;51.084;16.958;2023-05-08T06:41:09;101618.05;;;9.03;100.00
54600;BME280;40500;51.084;16.958;2023-05-08T06:43:43;101616.27;;;8.99;100.00
54600;BME280;40500;51.084;16.958;2023-05-08T06:46:13;101617.66;;;8.99;100.00
54600;BME280;40500;51.084;16.958;2023-05-08T06:48:46;101617.70;;;9.03;100.00
54600;BME280;40500;51.084;16.958;2023-05-08T06:51:17;101621.39;;;9.04;100.00
54600;BME280;40500;51.084;16.958;2023-05-08T06:53:48;101616.85;;;9.05;100.00
54600;BME280;40500;51.084;16.958;2023-05-08T06:56:18;101619.15;;;9.07;100.00
54600;BME280;40500;51.084;16.958;2023-05-08T06:58:49;101615.85;;;9.10;100.00
54600;BME280;40500;51.084;16.958;2023-05-08T07:01:36;101617.79;;;9.10;100.00
54600;BME280;40500;51.084;16.958;2023-05-08T07:04:09;101618.86;;;9.13;100.00
54600;BME280;40500;51.084;16.958;2023-05-08T07:06:39;101622.20;;;9.17;100.00
54600;BME280;40500;51.084;16.958;2023-05-08T07:09:09;101622.39;;;9.18;100.00
54600;BME280;40500;51.084;16.958;2023-05-08T07:11:44;101625.89;;;9.19;100.00
54600;BME280;40500;51.084;16.958;2023-05-08T07:14:14;101624.22;;;9.27;100.00
54600;BME280;40500;51.084;16.958;2023-05-08T07:16:44;101625.31;;;9.31;100.00
54600;BME280;40500;51.084;16.958;2023-05-08T07:19:15;101626.55;;;9.33;100.00
54600;BME280;40500;51.084;16.958;2023-05-08T07:21:45;101626.04;;;9.34;100.00
54600;BME280;40500;51.084;16.958;2023-05-08T07:24:16;101626.56;;;9.35;100.00
54600;BME280;40500;51.084;16.958;2023-05-08T07:26:46;101623.27;;;9.36;100.00
54600;BME280;40500;51.084;16.958;2023-05-08T07:29:17;101624.16;;;9.39;100.00
54600;BME280;40500;51.084;16.958;2023-05-08T07:31:48;101623.31;;;9.43;100.00
54600;BME280;40500;51.084;16.958;2023-05-08T07:34:20;101631.59;;;9.50;100.00
54600;BME280;40500;51.084;16.958;2023-05-08T07:36:50;101625.33;;;9.54;100.00
54600;BME280;40500;51.084;16.958;2023-05-08T07:39:21;101625.50;;;9.54;100.00
54600;BME280;40500;51.084;16.958;2023-05-08T07:41:51;101622.19;;;9.55;100.00
54600;BME280;40500;51.084;16.958;2023-05-08T07:44:21;101620.67;;;9.62;100.00
54600;BME280;40500;51.084;16.958;2023-05-08T07:46:52;101626.27;;;9.64;100.00
54600;BME280;40500;51.084;16.958;2023-05-08T07:49:22;101623.66;;;9.65;100.00
54600;BME280;40500;51.084;16.958;2023-05-08T07:51:54;101624.75;;;9.69;100.00
54600;BME280;40500;51.084;16.958;2023-05-08T07:54:24;101626.02;;;9.74;100.00
54600;BME280;40500;51.084;16.958;2023-05-08T07:56:54;101623.60;;;9.80;100.00
54600;BME280;40500;51.084;16.958;2023-05-08T07:59:25;101623.83;;;9.88;100.00
54600;BME280;40500;51.084;16.958;2023-05-08T08:01:58;101625.96;;;9.94;100.00
54600;BME280;40500;51.084;16.958;2023-05-08T08:04:28;101623.71;;;9.96;100.00
54600;BME280;40500;51.084;16.958;2023-05-08T08:06:59;101627.25;;;10.03;100.00
54600;BME280;40500;51.084;16.958;2023-05-08T08:09:32;101631.30;;;10.07;100.00
54600;BME280;40500;51.084;16.958;2023-05-08T08:12:02;101623.44;;;10.10;100.00
54600;BME280;40500;51.084;16.958;2023-05-08T08:14:33;101624.69;;;10.17;100.00
54600;BME280;40500;51.084;16.958;2023-05-08T08:17:03;101631.04;;;10.23;100.00
54600;BME280;40500;51.084;16.958;2023-05-08T08:19:33;101626.49;;;10.24;100.00
54600;BME280;40500;51.084;16.958;2023-05-08T08:22:04;101624.92;;;10.26;100.00
54600;BME280;40500;51.084;16.958;2023-05-08T08:24:35;101622.71;;;10.34;100.00
54600;BME280;40500;51.084;16.958;2023-05-08T08:27:05;101619.26;;;10.42;100.00
54600;BME280;40500;51.084;16.958;2023-05-08T08:29:36;101613.66;;;10.46;100.00
54600;BME280;40500;51.084;16.958;2023-05-08T08:32:07;101611.75;;;10.49;100.00
54600;BME280;40500;51.084;16.958;2023-05-08T08:34:39;101615.60;;;10.49;100.00
54600;BME280;40500;51.084;16.958;2023-05-08T08:37:09;101613.50;;;10.50;100.00
54600;BME280;40500;51.084;16.958;2023-05-08T08:39:41;101615.27;;;10.55;100.00
54600;BME280;40500;51.084;16.958;2023-05-08T08:42:11;101609.52;;;10.59;100.00
54600;BME280;40500;51.084;16.958;2023-05-08T08:44:43;101610.41;;;10.65;100.00
54600;BME280;40500;51.084;16.958;2023-05-08T08:47:15;101607.27;;;10.70;100.00
54600;BME280;40500;51.084;16.958;2023-05-08T08:49:48;101605.34;;;10.72;100.00
54600;BME280;40500;51.084;16.958;2023-05-08T08:52:25;101607.27;;;10.74;100.00
54600;BME280;40500;51.084;16.958;2023-05-08T08:54:57;101610.09;;;10.78;100.00
54600;BME280;40500;51.084;16.958;2023-05-08T08:57:32;101605.90;;;10.80;100.00
54600;BME280;40500;51.084;16.958;2023-05-08T09:00:05;101606.95;;;10.83;100.00
54600;BME280;40500;51.084;16.958;2023-05-08T09:02:38;101603.63;;;10.90;100.00
54600;BME280;40500;51.084;16.958;2023-05-08T09:05:09;101604.01;;;10.95;100.00
54600;BME280;40500;51.084;16.958;2023-05-08T09:07:40;101606.11;;;10.96;100.00
54600;BME280;40500;51.084;16.958;2023-05-08T09:10:12;101599.61;;;11.01;100.00
54600;BME280;40500;51.084;16.958;2023-05-08T09:12:44;101604.02;;;11.06;100.00
54600;BME280;40500;51.084;16.958;2023-05-08T09:15:14;101603.50;;;11.06;100.00
54600;BME280;40500;51.084;16.958;2023-05-08T09:17:45;101601.40;;;11.05;100.00
54600;BME280;40500;51.084;16.958;2023-05-08T09:20:16;101597.89;;;11.11;100.00
54600;BME280;40500;51.084;16.958;2023-05-08T09:22:46;101594.55;;;11.16;100.00
54600;BME280;40500;51.084;16.958;2023-05-08T09:25:17;101589.14;;;11.17;100.00
54600;BME280;40500;51.084;16.958;2023-05-08T09:27:48;101590.18;;;11.22;100.00
54600;BME280;40500;51.084;16.958;2023-05-08T09:30:18;101595.79;;;11.26;100.00
54600;BME280;40500;51.084;16.958;2023-05-08T09:32:49;101595.11;;;11.29;100.00
54600;BME280;40500;51.084;16.958;2023-05-08T09:35:19;101594.05;;;11.29;100.00
54600;BME280;40500;51.084;16.958;2023-05-08T09:37:54;101591.94;;;11.31;100.00
54600;BME280;40500;51.084;16.958;2023-05-08T09:40:26;101594.22;;;11.35;100.00
54600;BME280;40500;51.084;16.958;2023-05-08T09:42:56;101586.67;;;11.35;100.00
54600;BME280;40500;51.084;16.958;2023-05-08T09:45:29;101579.31;;;11.38;100.00
54600;BME280;40500;51.084;16.958;2023-05-08T09:48:00;101585.61;;;11.47;100.00
54600;BME280;40500;51.084;16.958;2023-05-08T09:50:31;101590.52;;;11.53;100.00
54600;BME280;40500;51.084;16.958;2023-05-08T09:53:01;101595.61;;;11.58;100.00
54600;BME280;40500;51.084;16.958;2023-05-08T09:55:46;101589.30;;;11.64;100.00
54600;BME280;40500;51.084;16.958;2023-05-08T09:58:17;101591.91;;;11.70;100.00
54600;BME280;40500;51.084;16.958;2023-05-08T10:00:47;101582.26;;;11.77;100.00
54600;BME280;40500;51.084;16.958;2023-05-08T10:03:18;101581.34;;;11.85;100.00
54600;BME280;40500;51.084;16.958;2023-05-08T10:05:48;101574.34;;;11.89;100.00
54600;BME280;40500;51.084;16.958;2023-05-08T10:08:20;101585.93;;;11.96;100.00
54600;BME280;40500;51.084;16.958;2023-05-08T10:10:51;101582.58;;;12.00;100.00
54600;BME280;40500;51.084;16.958;2023-05-08T10:13:21;101572.39;;;12.02;100.00
54600;BME280;40500;51.084;16.958;2023-05-08T10:15:54;101577.65;;;12.05;100.00
54600;BME280;40500;51.084;16.958;2023-05-08T10:18:30;101578.67;;;12.11;100.00
54600;BME280;40500;51.084;16.958;2023-05-08T10:21:06;101580.78;;;12.16;100.00
54600;BME280;40500;51.084;16.958;2023-05-08T10:23:40;101575.14;;;12.20;100.00
54600;BME280;40500;51.084;16.958;2023-05-08T10:26:15;101580.73;;;12.29;100.00
54600;BME280;40500;51.084;16.958;2023-05-08T10:28:54;101576.66;;;12.34;100.00
54600;BME280;40500;51.084;16.958;2023-05-08T10:31:28;101566.45;;;12.40;100.00
54600;BME280;40500;51.084;16.958;2023-05-08T10:34:02;101564.31;;;12.44;100.00
54600;BME280;40500;51.084;16.958;2023-05-08T10:36:33;101559.38;;;12.48;100.00
54600;BME280;40500;51.084;16.958;2023-05-08T10:39:05;101564.08;;;12.55;100.00
54600;BME280;40500;51.084;16.958;2023-05-08T10:41:37;101567.40;;;12.59;100.00
54600;BME280;40500;51.084;16.958;2023-05-08T10:44:08;101558.44;;;12.60;100.00
54600;BME280;40500;51.084;16.958;2023-05-08T10:46:45;101555.98;;;12.61;100.00
54600;BME280;40500;51.084;16.958;2023-05-08T10:49:21;101554.38;;;12.64;100.00
54600;BME280;40500;51.084;16.958;2023-05-08T10:52:00;101554.16;;;12.70;100.00
54600;BME280;40500;51.084;16.958;2023-05-08T10:54:46;101559.91;;;12.77;100.00
54600;BME280;40500;51.084;16.958;2023-05-08T10:57:17;101560.56;;;12.85;100.00
54600;BME280;40500;51.084;16.958;2023-05-08T10:59:48;101557.73;;;12.90;100.00
54600;BME280;40500;51.084;16.958;2023-05-08T11:02:26;101553.79;;;12.98;100.00
54600;BME280;40500;51.084;16.958;2023-05-08T11:05:14;101555.16;;;13.02;100.00
54600;BME280;40500;51.084;16.958;2023-05-08T11:07:55;101554.25;;;13.07;100.00
54600;BME280;40500;51.084;16.958;2023-05-08T11:10:31;101547.52;;;13.13;100.00
54600;BME280;40500;51.084;16.958;2023-05-08T11:13:05;101551.11;;;13.26;100.00
54600;BME280;40500;51.084;16.958;2023-05-08T11:15:40;101548.02;;;13.43;100.00
54600;BME280;40500;51.084;16.958;2023-05-08T11:18:11;101539.02;;;13.63;100.00
54600;BME280;40500;51.084;16.958;2023-05-08T11:20:56;101536.66;;;13.69;100.00
54600;BME280;40500;51.084;16.958;2023-05-08T11:23:27;101538.80;;;13.65;100.00
54600;BME280;40500;51.084;16.958;2023-05-08T11:26:03;101540.47;;;13.58;100.00
54600;BME280;40500;51.084;16.958;2023-05-08T11:28:36;101536.17;;;13.65;100.00
54600;BME280;40500;51.084;16.958;2023-05-08T11:31:07;101543.98;;;13.75;100.00
54600;BME280;40500;51.084;16.958;2023-05-08T11:33:38;101537.63;;;13.76;100.00
54600;BME280;40500;51.084;16.958;2023-05-08T11:36:16;101533.58;;;13.92;100.00
54600;BME280;40500;51.084;16.958;2023-05-08T11:39:06;101539.36;;;14.09;100.00
54600;BME280;40500;51.084;16.958;2023-05-08T11:41:37;101538.07;;;14.29;100.00
54600;BME280;40500;51.084;16.958;2023-05-08T11:44:19;101536.45;;;14.31;100.00
54600;BME280;40500;51.084;16.958;2023-05-08T11:46:53;101530.92;;;14.35;100.00
54600;BME280;40500;51.084;16.958;2023-05-08T11:49:25;101525.28;;;14.36;100.00
54600;BME280;40500;51.084;16.958;2023-05-08T11:51:59;101527.77;;;14.34;100.00
54600;BME280;40500;51.084;16.958;2023-05-08T11:54:34;101528.30;;;14.47;100.00
54600;BME280;40500;51.084;16.958;2023-05-08T11:57:05;101529.70;;;14.62;100.00
54600;BME280;40500;51.084;16.958;2023-05-08T11:59:38;101523.49;;;14.76;100.00
54600;BME280;40500;51.084;16.958;2023-05-08T12:02:11;101522.31;;;14.96;100.00
54600;BME280;40500;51.084;16.958;2023-05-08T12:04:45;101525.89;;;15.25;100.00
54600;BME280;40500;51.084;16.958;2023-05-08T12:07:17;101525.53;;;15.55;100.00
54600;BME280;40500;51.084;16.958;2023-05-08T12:09:48;101522.42;;;15.70;100.00
54600;BME280;40500;51.084;16.958;2023-05-08T12:12:19;101516.63;;;15.79;100.00
54600;BME280;40500;51.084;16.958;2023-05-08T12:14:51;101517.17;;;15.96;100.00
54600;BME280;40500;51.084;16.958;2023-05-08T12:17:21;101511.23;;;16.10;100.00
54600;BME280;40500;51.084;16.958;2023-05-08T12:19:55;101510.74;;;16.32;100.00
54600;BME280;40500;51.084;16.958;2023-05-08T12:22:32;101510.02;;;16.88;100.00
54600;BME280;40500;51.084;16.958;2023-05-08T12:25:05;101510.25;;;17.48;100.00
54600;BME280;40500;51.084;16.958;2023-05-08T12:27:36;101507.91;;;18.01;100.00
54600;BME280;40500;51.084;16.958;2023-05-08T12:30:09;101504.27;;;18.57;100.00
54600;BME280;40500;51.084;16.958;2023-05-08T12:32:41;101496.59;;;19.14;99.71
54600;BME280;40500;51.084;16.958;2023-05-08T12:35:13;101502.73;;;19.57;99.95
54600;BME280;40500;51.084;16.958;2023-05-08T12:37:45;101503.61;;;20.11;98.92
54600;BME280;40500;51.084;16.958;2023-05-08T12:40:28;101502.23;;;20.69;94.80
54600;BME280;40500;51.084;16.958;2023-05-08T12:43:01;101501.46;;;21.35;91.98
54600;BME280;40500;51.084;16.958;2023-05-08T12:45:34;101494.38;;;21.98;87.79
54600;BME280;40500;51.084;16.958;2023-05-08T12:48:08;101481.30;;;22.56;80.61
54600;BME280;40500;51.084;16.958;2023-05-08T12:50:40;101480.08;;;23.10;78.95
54600;BME280;40500;51.084;16.958;2023-05-08T12:53:13;101478.14;;;23.94;76.55
54600;BME280;40500;51.084;16.958;2023-05-08T12:55:52;101471.75;;;24.64;70.05
54600;BME280;40500;51.084;16.958;2023-05-08T12:58:25;101469.85;;;25.36;69.46
54600;BME280;40500;51.084;16.958;2023-05-08T13:01:05;101462.02;;;26.40;66.57
54600;BME280;40500;51.084;16.958;2023-05-08T13:03:38;101461.97;;;27.45;63.10
54600;BME280;40500;51.084;16.958;2023-05-08T13:06:19;101453.14;;;28.46;60.80
54600;BME280;40500;51.084;16.958;2023-05-08T13:08:54;101452.37;;;29.43;53.40